Time;durP1;ratioP1;P1;durP2;ratioP2;P2;SDS_P1;SDS_P2;PMS_P1;PMS_P2;Temp;Humidity;BMP_temperature;BMP_pressure;BME280_temperature;BME280_humidity;BME280_pressure;Samples;Min_cycle;Max_cycle;Signal;HPM_P1;HPM_P2
2022/06/07 00:00:48;;;;;;;14.60;6.70;;;12.00;99.90;;;;;;4916093;29;20448;-40
2022/06/07 00:03:15;;;;;;;12.50;5.93;;;12.00;99.90;;;;;;4915047;28;20055;-40
2022/06/07 00:05:43;;;;;;;12.55;6.05;;;12.00;99.90;;;;;;4913747;29;20064;-40
2022/06/07 00:08:12;;;;;;;12.73;6.60;;;12.00;99.90;;;;;;4887369;29;20056;-40
2022/06/07 00:10:38;;;;;;;13.30;6.05;;;12.00;99.90;;;;;;4915036;29;20552;-40
2022/06/07 00:13:05;;;;;;;10.68;5.78;;;12.00;99.90;;;;;;4896297;29;20080;-41
2022/06/07 00:15:30;;;;;;;14.13;5.88;;;12.10;99.90;;;;;;4910066;29;20538;-41
2022/06/07 00:17:56;;;;;;;12.88;6.13;;;12.10;99.90;;;;;;4898241;29;20075;-41
2022/06/07 00:20:22;;;;;;;12.55;6.45;;;12.10;99.90;;;;;;4903319;29;20049;-40
2022/06/07 00:22:48;;;;;;;13.23;6.53;;;12.10;99.90;;;;;;4907864;29;20087;-40
2022/06/07 00:25:15;;;;;;;11.65;7.03;;;12.10;99.90;;;;;;4897094;29;20112;-40
2022/06/07 00:27:42;;;;;;;11.80;5.78;;;12.10;99.90;;;;;;4897073;29;20504;-41
2022/06/07 00:30:08;;;;;;;11.43;6.47;;;12.10;99.90;;;;;;4915795;29;20131;-42
2022/06/07 00:32:34;;;;;;;12.20;6.60;;;12.10;99.90;;;;;;4914854;29;20040;-41
2022/06/07 00:35:01;;;;;;;13.10;6.32;;;12.10;99.90;;;;;;4902273;29;20123;-41
2022/06/07 00:37:27;;;;;;;13.90;7.03;;;12.00;99.90;;;;;;4889419;29;20052;-42
2022/06/07 00:39:53;;;;;;;13.65;6.43;;;12.10;99.90;;;;;;4915214;29;20055;-39
2022/06/07 00:42:18;;;;;;;14.70;6.95;;;12.10;99.90;;;;;;4914641;29;20068;-41
2022/06/07 00:44:46;;;;;;;11.02;6.18;;;12.10;99.90;;;;;;4900881;29;20049;-41
2022/06/07 00:47:19;;;;;;;11.45;6.70;;;12.10;99.90;;;;;;4903271;29;20123;-41
2022/06/07 00:49:50;;;;;;;16.65;7.32;;;12.10;99.90;;;;;;4902344;29;20484;-40
2022/06/07 00:52:18;;;;;;;12.57;6.43;;;12.10;99.90;;;;;;4903955;29;20048;-43
2022/06/07 00:54:43;;;;;;;11.75;6.07;;;12.10;99.90;;;;;;4894968;29;20048;-40
2022/06/07 00:57:09;;;;;;;12.50;7.00;;;12.20;99.90;;;;;;4880319;29;20049;-40
2022/06/07 00:59:35;;;;;;;9.80;6.22;;;12.10;99.90;;;;;;4895528;29;20048;-40
2022/06/07 01:02:01;;;;;;;11.23;6.18;;;12.20;99.90;;;;;;4896158;29;20051;-40
2022/06/07 01:04:27;;;;;;;13.55;6.85;;;12.20;99.90;;;;;;4904809;29;20150;-41
2022/06/07 01:12:43;;;;;;;12.75;6.32;;;12.20;99.90;;;;;;4911126;29;20044;-40
2022/06/07 01:15:10;;;;;;;11.88;6.93;;;12.20;99.90;;;;;;4919200;29;20058;-41
2022/06/07 01:17:36;;;;;;;11.18;6.28;;;12.20;99.90;;;;;;4897214;29;20048;-41
2022/06/07 01:20:03;;;;;;;14.05;6.78;;;12.20;99.90;;;;;;4914353;29;20048;-41
2022/06/07 01:22:28;;;;;;;12.95;6.72;;;12.20;99.90;;;;;;4913053;29;20492;-39
2022/06/07 01:24:54;;;;;;;12.45;6.47;;;12.20;99.90;;;;;;4914489;29;20059;-41
2022/06/07 01:27:20;;;;;;;9.15;6.22;;;12.20;99.90;;;;;;4898454;29;20063;-40
2022/06/07 01:29:46;;;;;;;12.60;6.75;;;12.20;99.90;;;;;;4925872;29;20052;-41
2022/06/07 01:32:12;;;;;;;8.60;6.13;;;12.20;99.90;;;;;;4911952;28;20055;-39
2022/06/07 01:34:43;;;;;;;10.88;6.30;;;12.20;99.90;;;;;;4912555;29;20884;-40
2022/06/07 01:37:11;;;;;;;10.43;6.03;;;12.20;99.90;;;;;;4893634;29;21058;-40
2022/06/07 01:42:21;;;;;;;17.92;7.53;;;12.20;99.90;;;;;;4909780;29;20306;-41
2022/06/07 01:44:48;;;;;;;11.75;6.78;;;12.20;99.90;;;;;;4898983;29;20075;-41
2022/06/07 01:47:17;;;;;;;13.38;6.97;;;12.20;99.90;;;;;;4886866;29;20087;-40
2022/06/07 01:49:43;;;;;;;12.30;7.28;;;12.20;99.90;;;;;;4901387;29;20044;-40
2022/06/07 01:52:10;;;;;;;15.55;7.05;;;12.20;99.90;;;;;;4903963;29;20048;-41
2022/06/07 01:54:36;;;;;;;12.63;7.65;;;12.30;99.90;;;;;;4898486;29;20055;-41
2022/06/07 01:57:03;;;;;;;11.50;6.70;;;12.20;99.90;;;;;;4897381;29;20050;-40
2022/06/07 01:59:28;;;;;;;14.10;7.20;;;12.30;99.90;;;;;;4911410;29;20062;-41
2022/06/07 02:01:54;;;;;;;14.10;6.32;;;12.30;99.90;;;;;;4903925;29;20053;-41
2022/06/07 02:04:23;;;;;;;13.25;6.55;;;12.30;99.90;;;;;;4898280;29;20084;-41
2022/06/07 02:06:49;;;;;;;15.00;7.18;;;12.30;99.90;;;;;;4888423;29;20516;-41
2022/06/07 02:09:16;;;;;;;15.35;6.88;;;12.30;99.90;;;;;;4912596;29;20153;-40
2022/06/07 02:11:42;;;;;;;11.55;6.25;;;12.30;99.90;;;;;;4913854;29;20560;-41
2022/06/07 02:14:08;;;;;;;11.13;6.95;;;12.30;99.90;;;;;;4897865;28;20139;-40
2022/06/07 02:16:33;;;;;;;15.25;7.05;;;12.30;99.90;;;;;;4891498;29;20099;-41
2022/06/07 02:18:59;;;;;;;12.65;7.30;;;12.30;99.90;;;;;;4907100;29;20135;-40
2022/06/07 02:21:25;;;;;;;10.95;6.97;;;12.40;99.90;;;;;;4905097;29;20044;-39
2022/06/07 02:23:51;;;;;;;13.57;7.05;;;12.40;99.90;;;;;;4893913;29;20063;-40
2022/06/07 02:26:53;;;;;;;9.93;7.20;;;12.30;99.90;;;;;;4893625;29;20044;-41
2022/06/07 02:29:28;;;;;;;15.18;7.78;;;12.30;99.90;;;;;;4893785;29;20060;-39
2022/06/07 02:32:04;;;;;;;11.18;7.57;;;12.30;99.90;;;;;;4911110;29;20513;-40
2022/06/07 02:34:30;;;;;;;15.40;8.02;;;12.30;99.90;;;;;;4902105;29;20052;-39
2022/06/07 02:36:59;;;;;;;14.55;7.68;;;12.30;99.90;;;;;;4894237;29;20056;-40
2022/06/07 02:39:25;;;;;;;11.73;8.07;;;12.20;99.90;;;;;;4893364;29;20084;-39
2022/06/07 02:41:54;;;;;;;15.07;8.80;;;12.20;99.90;;;;;;4911353;29;20527;-40
2022/06/07 02:44:20;;;;;;;12.18;8.45;;;12.20;99.90;;;;;;4901113;29;20048;-39
2022/06/07 02:46:45;;;;;;;15.05;8.63;;;12.10;99.90;;;;;;4891941;29;20055;-41
2022/06/07 02:49:11;;;;;;;12.98;8.52;;;12.10;99.90;;;;;;4893626;29;20637;-40
2022/06/07 02:51:37;;;;;;;19.20;9.00;;;12.10;99.90;;;;;;4907596;29;20527;-39
2022/06/07 02:54:03;;;;;;;14.57;9.43;;;12.00;99.90;;;;;;4905758;29;20048;-40
2022/06/07 02:56:28;;;;;;;14.10;8.88;;;12.00;99.90;;;;;;4901168;29;20566;-39
2022/06/07 02:58:54;;;;;;;15.43;9.02;;;12.00;99.90;;;;;;4909330;29;20452;-40
2022/06/07 03:01:20;;;;;;;15.32;8.60;;;12.00;99.90;;;;;;4906298;29;20092;-39
2022/06/07 03:03:45;;;;;;;16.27;9.20;;;12.00;99.90;;;;;;4889588;29;20056;-39
2022/06/07 03:06:11;;;;;;;18.02;8.43;;;12.00;99.90;;;;;;4903767;29;20083;-40
2022/06/07 03:08:38;;;;;;;17.25;9.80;;;11.90;99.90;;;;;;4904765;29;20048;-39
2022/06/07 03:11:04;;;;;;;15.85;9.55;;;11.90;99.90;;;;;;4913116;29;20231;-38
2022/06/07 03:13:29;;;;;;;16.00;8.35;;;11.90;99.90;;;;;;4912419;29;20131;-38
2022/06/07 03:15:56;;;;;;;10.95;7.55;;;11.90;99.90;;;;;;4910135;29;20063;-40
2022/06/07 03:18:22;;;;;;;18.92;8.35;;;11.80;99.90;;;;;;4897171;29;20147;-39
2022/06/07 03:20:50;;;;;;;16.00;8.25;;;11.80;99.90;;;;;;4912865;29;20168;-39
2022/06/07 03:23:16;;;;;;;18.98;9.32;;;11.80;99.90;;;;;;4912674;29;20568;-40
2022/06/07 03:25:42;;;;;;;14.02;8.95;;;11.70;99.90;;;;;;4900449;29;20123;-39
2022/06/07 03:28:08;;;;;;;14.90;8.15;;;11.70;99.90;;;;;;4895804;29;20056;-40
2022/06/07 03:30:34;;;;;;;14.13;8.23;;;11.70;99.90;;;;;;4913185;29;20068;-39
2022/06/07 03:33:00;;;;;;;12.10;7.78;;;11.60;99.90;;;;;;4912010;29;20044;-39
2022/06/07 03:35:26;;;;;;;14.63;7.90;;;11.70;99.90;;;;;;4924187;29;20139;-39
2022/06/07 03:41:33;;;;;;;11.93;6.82;;;11.60;99.90;;;;;;4905576;29;20107;-39
2022/06/07 03:44:00;;;;;;;15.52;6.80;;;11.50;99.90;;;;;;4910028;29;20084;-39
2022/06/07 03:46:28;;;;;;;10.07;6.57;;;11.50;99.90;;;;;;4901506;29;20045;-39
2022/06/07 03:48:55;;;;;;;15.98;7.43;;;11.50;99.90;;;;;;4893419;29;20119;-39
2022/06/07 03:51:24;;;;;;;11.15;7.10;;;11.50;99.90;;;;;;4910689;29;20083;-39
2022/06/07 03:53:51;;;;;;;10.18;5.85;;;11.40;99.90;;;;;;4915334;29;20048;-39
2022/06/07 03:56:17;;;;;;;7.65;5.32;;;11.50;99.90;;;;;;4906795;29;20095;-39
2022/06/07 03:58:44;;;;;;;10.88;5.45;;;11.50;99.90;;;;;;4899355;29;20103;-39
2022/06/07 04:01:17;;;;;;;7.10;5.00;;;11.40;99.90;;;;;;4913037;29;20052;-39
2022/06/07 04:03:45;;;;;;;7.00;4.70;;;11.30;99.90;;;;;;4906538;29;20051;-40
2022/06/07 04:06:19;;;;;;;8.20;4.70;;;11.50;99.90;;;;;;4907759;29;20056;-41
2022/06/07 04:08:45;;;;;;;8.77;5.05;;;11.50;99.90;;;;;;4909093;29;20528;-40
2022/06/07 04:11:12;;;;;;;12.02;5.20;;;11.40;99.90;;;;;;4914122;29;20076;-40
2022/06/07 04:13:38;;;;;;;10.15;5.90;;;11.40;99.90;;;;;;4914250;29;20356;-39
2022/06/07 04:16:09;;;;;;;11.25;5.50;;;11.40;99.90;;;;;;4910633;29;20060;-39
2022/06/07 04:18:35;;;;;;;14.77;5.53;;;11.30;99.90;;;;;;4904117;29;20485;-40
2022/06/07 04:21:01;;;;;;;11.10;5.78;;;11.30;99.90;;;;;;4913800;29;20051;-40
2022/06/07 04:23:27;;;;;;;12.65;5.88;;;11.30;99.90;;;;;;4912631;29;20048;-40
2022/06/07 04:25:52;;;;;;;11.18;5.60;;;11.30;99.90;;;;;;4915625;29;20051;-41
2022/06/07 04:28:18;;;;;;;13.45;6.07;;;11.40;99.90;;;;;;4899019;29;20080;-41
2022/06/07 04:30:46;;;;;;;11.23;6.25;;;11.30;99.90;;;;;;4915554;29;20044;-40
2022/06/07 04:33:14;;;;;;;14.68;6.00;;;11.30;99.90;;;;;;4914519;29;20051;-40
2022/06/07 04:35:44;;;;;;;16.58;6.47;;;11.30;99.90;;;;;;4905032;29;20137;-40
2022/06/07 04:38:12;;;;;;;12.50;6.45;;;11.40;99.90;;;;;;4900949;29;20794;-41
2022/06/07 04:40:42;;;;;;;16.75;6.70;;;11.40;99.90;;;;;;4915541;29;20048;-40
2022/06/07 04:43:09;;;;;;;13.73;6.80;;;11.40;99.90;;;;;;4912228;29;20093;-40
2022/06/07 04:45:37;;;;;;;15.20;6.03;;;11.40;99.90;;;;;;4906558;29;20095;-40
2022/06/07 04:48:04;;;;;;;13.15;5.57;;;11.40;99.90;;;;;;4879419;29;20044;-40
2022/06/07 04:50:29;;;;;;;14.23;5.90;;;11.40;99.90;;;;;;4905535;29;20060;-40
2022/06/07 04:52:55;;;;;;;11.55;5.30;;;11.40;99.90;;;;;;4910221;29;20116;-40
2022/06/07 04:55:21;;;;;;;12.40;5.05;;;11.50;99.90;;;;;;4895287;29;20108;-40
2022/06/07 04:57:46;;;;;;;14.27;5.20;;;11.50;99.90;;;;;;4895061;29;20055;-40
2022/06/07 05:00:18;;;;;;;11.32;5.10;;;11.50;99.90;;;;;;4905731;29;20083;-40
2022/06/07 05:02:44;;;;;;;13.10;5.13;;;11.40;99.90;;;;;;4899246;29;20492;-42
2022/06/07 05:05:11;;;;;;;14.55;4.80;;;11.40;99.90;;;;;;4918283;29;20052;-41
2022/06/07 05:07:37;;;;;;;11.30;5.15;;;11.50;99.90;;;;;;4898647;29;20047;-40
2022/06/07 05:10:09;;;;;;;6.55;4.20;;;11.50;99.90;;;;;;4915308;29;20054;-41
2022/06/07 05:12:35;;;;;;;12.50;5.00;;;11.50;99.90;;;;;;4914189;29;20044;-39
2022/06/07 05:15:02;;;;;;;10.98;4.70;;;11.50;99.90;;;;;;4915065;29;20052;-40
2022/06/07 05:17:28;;;;;;;11.77;4.82;;;11.50;99.90;;;;;;4898842;29;20112;-41
2022/06/07 05:19:53;;;;;;;16.20;5.40;;;11.60;99.90;;;;;;4910396;29;20039;-39
2022/06/07 05:22:19;;;;;;;15.10;6.03;;;11.60;99.90;;;;;;4925865;29;20084;-39
2022/06/07 05:24:45;;;;;;;13.32;6.45;;;11.60;99.90;;;;;;4913771;29;20056;-39
2022/06/07 05:27:18;;;;;;;16.80;6.32;;;11.60;99.90;;;;;;4899111;29;20476;-40
2022/06/07 05:29:51;;;;;;;15.48;6.28;;;11.60;99.90;;;;;;4914458;29;20051;-39
2022/06/07 05:32:18;;;;;;;13.07;6.75;;;11.60;99.90;;;;;;4907667;29;20045;-40
2022/06/07 05:34:44;;;;;;;14.55;6.45;;;11.60;99.90;;;;;;4907674;29;20052;-39
2022/06/07 05:37:15;;;;;;;13.98;6.38;;;11.60;99.90;;;;;;4899471;29;20136;-39
2022/06/07 05:39:40;;;;;;;16.40;6.30;;;11.60;99.90;;;;;;4912989;29;20096;-38
2022/06/07 05:42:08;;;;;;;8.90;5.38;;;11.50;99.90;;;;;;4909848;29;20060;-40
2022/06/07 05:44:34;;;;;;;12.15;5.70;;;11.50;99.90;;;;;;4909960;29;20048;-40
2022/06/07 05:47:00;;;;;;;7.68;5.45;;;11.50;99.90;;;;;;4897850;29;20107;-39
2022/06/07 05:49:26;;;;;;;11.57;4.70;;;11.50;99.90;;;;;;4912056;29;20075;-40
2022/06/07 05:51:51;;;;;;;14.70;4.95;;;11.50;99.90;;;;;;4912949;29;20488;-40
2022/06/07 05:54:17;;;;;;;8.32;4.70;;;11.40;99.90;;;;;;4919466;29;20134;-40
2022/06/07 05:56:43;;;;;;;12.90;5.32;;;11.40;99.90;;;;;;4914844;29;20388;-40
2022/06/07 05:59:09;;;;;;;6.88;4.38;;;11.30;99.90;;;;;;4927163;29;20063;-39
2022/06/07 06:01:35;;;;;;;12.38;4.50;;;11.30;99.90;;;;;;4927668;29;20082;-41
2022/06/07 06:04:03;;;;;;;8.80;3.90;;;11.30;99.90;;;;;;4923818;29;20046;-40
2022/06/07 06:06:29;;;;;;;7.25;3.30;;;11.30;99.90;;;;;;4916347;29;20055;-39
2022/06/07 06:11:39;;;;;;;4.00;2.65;;;11.40;99.90;;;;;;4912957;29;20067;-40
2022/06/07 06:14:05;;;;;;;5.35;2.65;;;11.40;99.90;;;;;;4910985;29;20048;-40
2022/06/07 06:16:31;;;;;;;6.20;2.65;;;11.40;99.90;;;;;;4899606;29;20939;-40
2022/06/07 06:18:59;;;;;;;6.82;2.55;;;11.40;99.90;;;;;;4907891;29;20124;-40
2022/06/07 06:21:35;;;;;;;6.82;2.97;;;11.40;99.90;;;;;;4911366;29;20044;-40
2022/06/07 06:24:01;;;;;;;7.60;2.22;;;11.40;99.90;;;;;;4925247;29;20055;-42
2022/06/07 06:26:27;;;;;;;7.95;2.08;;;11.40;99.90;;;;;;4900494;29;20509;-42
2022/06/07 06:28:53;;;;;;;4.90;1.92;;;11.40;99.90;;;;;;4907761;29;20048;-41
2022/06/07 06:31:20;;;;;;;5.90;1.63;;;11.40;99.90;;;;;;4913529;29;20044;-41
2022/06/07 06:33:49;;;;;;;8.20;1.45;;;11.40;99.90;;;;;;4912613;29;20067;-41
2022/06/07 06:36:18;;;;;;;7.93;1.73;;;11.40;99.90;;;;;;4904473;29;20579;-43
2022/06/07 06:38:44;;;;;;;7.40;1.20;;;11.50;99.90;;;;;;4896396;29;20133;-41
2022/06/07 06:41:16;;;;;;;3.28;1.10;;;11.50;99.90;;;;;;4906999;29;20048;-41
2022/06/07 06:43:43;;;;;;;3.95;1.17;;;11.50;99.90;;;;;;4902084;29;20049;-41
2022/06/07 06:46:21;;;;;;;6.78;1.70;;;11.50;99.90;;;;;;4889655;29;20059;-42
2022/06/07 06:48:46;;;;;;;5.32;1.10;;;11.50;99.90;;;;;;4885802;29;20044;-42
2022/06/07 06:51:15;;;;;;;6.00;1.35;;;11.60;99.90;;;;;;4903683;29;20115;-41
2022/06/07 06:53:42;;;;;;;10.13;1.67;;;11.70;99.90;;;;;;4911863;29;20160;-42
2022/06/07 06:56:09;;;;;;;6.90;1.90;;;11.70;99.90;;;;;;4894540;29;20044;-42
2022/06/07 06:58:35;;;;;;;4.65;1.60;;;11.70;99.90;;;;;;4882606;29;20070;-42
2022/06/07 07:01:03;;;;;;;8.50;1.60;;;11.80;99.90;;;;;;4904135;29;20512;-41
2022/06/07 07:03:30;;;;;;;16.55;2.22;;;11.80;99.90;;;;;;4906921;29;20056;-42
2022/06/07 07:05:56;;;;;;;7.75;2.00;;;11.90;99.90;;;;;;4907484;29;20048;-41
2022/06/07 07:08:24;;;;;;;10.77;2.00;;;11.90;99.90;;;;;;4891363;29;20071;-42
2022/06/07 07:10:50;;;;;;;9.30;2.17;;;11.90;99.90;;;;;;4908153;29;20127;-41
2022/06/07 07:13:16;;;;;;;10.35;2.38;;;12.00;99.90;;;;;;4907118;29;20043;-42
2022/06/07 07:15:48;;;;;;;8.85;2.22;;;12.00;99.90;;;;;;4911890;29;20063;-42
2022/06/07 07:18:14;;;;;;;13.50;2.67;;;12.10;99.90;;;;;;4890528;29;20040;-42
2022/06/07 07:20:41;;;;;;;8.02;2.30;;;12.10;99.90;;;;;;4925162;29;20063;-42
2022/06/07 07:23:06;;;;;;;12.88;2.97;;;12.10;99.90;;;;;;4910716;29;20572;-41
2022/06/07 07:25:32;;;;;;;6.90;2.28;;;12.20;99.90;;;;;;4911641;29;20139;-41
2022/06/07 07:27:58;;;;;;;10.63;2.30;;;12.20;99.90;;;;;;4894114;29;20051;-42
2022/06/07 07:30:24;;;;;;;10.70;2.50;;;12.20;99.90;;;;;;4910299;29;20152;-42
2022/06/07 07:32:49;;;;;;;12.98;2.63;;;12.30;99.90;;;;;;4910713;29;20508;-39
2022/06/07 07:35:17;;;;;;;11.50;2.42;;;12.30;99.90;;;;;;4911573;29;20460;-41
2022/06/07 07:37:43;;;;;;;15.52;2.75;;;12.30;99.90;;;;;;4895220;29;20044;-42
2022/06/07 07:40:10;;;;;;;11.90;2.40;;;12.30;99.90;;;;;;4911840;29;20574;-41
2022/06/07 07:42:36;;;;;;;12.18;2.03;;;12.30;99.90;;;;;;4909845;29;20099;-41
2022/06/07 07:45:02;;;;;;;10.95;2.85;;;12.40;99.90;;;;;;4907106;29;20048;-40
2022/06/07 07:47:27;;;;;;;12.43;2.30;;;12.40;99.90;;;;;;4895638;29;20166;-40
2022/06/07 07:49:54;;;;;;;8.43;2.13;;;12.40;99.90;;;;;;4910019;29;20403;-41
2022/06/07 07:52:21;;;;;;;8.50;1.65;;;12.40;99.90;;;;;;4909988;29;20096;-41
2022/06/07 07:54:47;;;;;;;9.00;1.52;;;12.30;99.90;;;;;;4910533;29;20127;-41
2022/06/07 07:57:12;;;;;;;8.85;1.45;;;12.30;99.90;;;;;;4894352;29;20518;-42
2022/06/07 07:59:38;;;;;;;6.47;1.17;;;12.40;99.90;;;;;;4908545;29;20074;-41
2022/06/07 08:02:04;;;;;;;8.60;1.75;;;12.30;99.90;;;;;;4910326;29;20518;-41
2022/06/07 08:04:29;;;;;;;8.98;1.40;;;12.40;99.90;;;;;;4907748;29;20176;-40
2022/06/07 08:06:55;;;;;;;10.18;1.60;;;12.30;99.90;;;;;;4893946;29;20804;-41
2022/06/07 08:09:22;;;;;;;7.00;1.67;;;12.40;99.90;;;;;;4908183;29;20063;-40
2022/06/07 08:11:48;;;;;;;8.10;1.60;;;12.40;99.90;;;;;;4910419;29;20103;-40
2022/06/07 08:14:18;;;;;;;10.48;1.48;;;12.40;99.90;;;;;;4909681;29;20135;-41
2022/06/07 08:16:44;;;;;;;8.48;1.20;;;12.50;99.90;;;;;;4897214;29;20048;-41
2022/06/07 08:19:11;;;;;;;9.45;1.30;;;12.50;99.90;;;;;;4909484;29;20103;-41
2022/06/07 08:21:38;;;;;;;8.70;1.40;;;12.60;99.90;;;;;;4924663;29;21590;-40
2022/06/07 08:24:05;;;;;;;12.13;1.58;;;12.60;99.90;;;;;;4910025;29;20496;-41
2022/06/07 08:26:31;;;;;;;12.13;1.90;;;12.70;99.90;;;;;;4898129;29;21057;-41
2022/06/07 08:28:57;;;;;;;12.88;2.20;;;12.90;99.90;;;;;;4906715;29;20088;-42
2022/06/07 08:31:26;;;;;;;9.38;1.50;;;12.80;99.90;;;;;;4908467;29;20131;-40
2022/06/07 08:39:22;;;;;;;8.75;1.65;;;13.00;99.90;;;;;;4908418;29;20082;-40
2022/06/07 08:42:01;;;;;;;10.93;2.00;;;13.10;99.90;;;;;;4910357;29;20115;-41
2022/06/07 08:44:41;;;;;;;8.40;1.77;;;13.10;99.90;;;;;;4907706;29;20048;-41
2022/06/07 08:47:25;;;;;;;8.57;1.45;;;13.10;99.90;;;;;;4894701;29;20082;-41
2022/06/07 08:49:54;;;;;;;7.25;1.55;;;13.10;99.90;;;;;;4908248;29;20067;-41
2022/06/07 08:52:26;;;;;;;8.02;1.98;;;13.10;99.90;;;;;;4908610;29;20416;-40
2022/06/07 08:54:53;;;;;;;7.90;1.63;;;13.20;99.90;;;;;;4909522;29;20392;-41
2022/06/07 08:57:35;;;;;;;9.90;1.83;;;13.20;99.90;;;;;;4894192;29;20063;-41
2022/06/07 09:00:24;;;;;;;5.88;1.35;;;13.20;99.90;;;;;;4909231;29;20135;-41
2022/06/07 09:03:03;;;;;;;8.18;1.42;;;13.20;99.90;;;;;;4909346;29;20052;-41
2022/06/07 09:05:29;;;;;;;6.95;1.40;;;13.30;99.90;;;;;;4921751;29;20075;-42
2022/06/07 09:07:54;;;;;;;11.23;1.45;;;13.20;99.90;;;;;;4893210;29;20489;-41
2022/06/07 09:13:23;;;;;;;10.63;1.40;;;13.20;99.90;;;;;;4909531;29;20059;-40
2022/06/07 09:15:53;;;;;;;5.97;1.20;;;13.20;99.90;;;;;;4887856;29;20493;-40
2022/06/07 09:18:20;;;;;;;10.13;1.77;;;13.20;99.90;;;;;;4893354;29;20103;-40
2022/06/07 09:20:53;;;;;;;10.65;1.77;;;13.20;99.90;;;;;;4909850;29;20316;-40
2022/06/07 09:23:27;;;;;;;10.15;1.40;;;13.10;99.90;;;;;;4906798;29;20048;-40
2022/06/07 09:25:55;;;;;;;7.97;1.20;;;13.00;99.90;;;;;;4908934;29;20080;-39
2022/06/07 09:28:27;;;;;;;8.32;1.70;;;13.00;99.90;;;;;;4892332;29;20048;-40
2022/06/07 09:31:22;;;;;;;;;;;12.90;99.90;;;;;;4908342;29;20052;-39
2022/06/07 09:33:56;;;;;;;7.90;1.30;;;12.90;99.90;;;;;;4900181;29;19923;-40
2022/06/07 09:36:21;;;;;;;5.63;1.13;;;12.90;99.90;;;;;;4897099;29;20089;-40
2022/06/07 09:38:52;;;;;;;5.65;1.30;;;12.90;99.90;;;;;;4903328;29;20150;-39
2022/06/07 09:41:40;;;;;;;8.90;1.13;;;12.90;99.90;;;;;;4908899;29;20551;-40
2022/06/07 09:44:29;;;;;;;7.15;1.55;;;12.90;99.90;;;;;;4909033;29;20079;-40
2022/06/07 09:47:11;;;;;;;10.88;1.63;;;13.00;99.90;;;;;;4893238;29;20551;-41
2022/06/07 09:49:51;;;;;;;8.55;1.77;;;13.00;99.90;;;;;;4907282;29;20071;-40
2022/06/07 09:52:41;;;;;;;12.52;1.73;;;13.10;99.90;;;;;;4907428;29;20052;-39
2022/06/07 09:55:32;;;;;;;11.07;2.22;;;13.20;99.90;;;;;;4908864;29;20531;-40
2022/06/07 09:58:28;;;;;;;15.60;2.20;;;13.30;99.90;;;;;;4891503;29;20161;-40
2022/06/07 10:01:25;;;;;;;10.98;1.73;;;13.30;99.90;;;;;;4907794;29;20135;-40
2022/06/07 10:03:54;;;;;;;8.90;1.80;;;13.40;99.90;;;;;;4907383;29;20044;-41
2022/06/07 10:06:28;;;;;;;8.65;1.88;;;13.40;99.90;;;;;;4897883;29;20051;-41
2022/06/07 10:09:22;;;;;;;13.95;2.53;;;13.50;99.90;;;;;;4899659;29;20052;-39
2022/06/07 10:12:24;;;;;;;9.68;1.90;;;13.50;99.90;;;;;;4889749;29;20756;-40
2022/06/07 10:14:50;;;;;;;;;;;13.50;99.90;;;;;;4906673;29;20456;-40
2022/06/07 10:17:49;;;;;;;9.77;1.85;;;13.50;99.90;;;;;;4893481;29;19927;-41
2022/06/07 10:20:25;;;;;;;13.55;1.77;;;13.60;99.90;;;;;;4907496;29;20079;-40
2022/06/07 10:23:05;;;;;;;8.13;1.60;;;13.70;99.90;;;;;;4905847;29;20128;-41
2022/06/07 10:26:15;;;;;;;7.10;1.45;;;13.70;99.90;;;;;;4907981;29;20143;-40
2022/06/07 10:29:18;;;;;;;7.10;1.70;;;13.70;99.90;;;;;;4880557;29;20094;-40
2022/06/07 10:32:14;;;;;;;8.35;1.83;;;13.80;99.90;;;;;;4907757;29;20044;-39
2022/06/07 10:34:43;;;;;;;7.95;1.20;;;13.70;99.90;;;;;;4906166;29;20451;-40
2022/06/07 10:37:37;;;;;;;6.43;1.20;;;13.70;99.90;;;;;;4893454;29;20055;-40
2022/06/07 10:40:34;;;;;;;10.60;1.40;;;13.60;99.90;;;;;;4906303;29;20054;-40
2022/06/07 10:43:01;;;;;;;5.80;1.50;;;13.60;99.90;;;;;;4905636;29;20063;-40
2022/06/07 10:45:33;;;;;;;7.75;1.55;;;13.60;99.90;;;;;;4908244;29;20083;-41
2022/06/07 10:48:10;;;;;;;6.03;1.40;;;13.60;99.90;;;;;;4892095;29;20112;-40
2022/06/07 10:50:54;;;;;;;8.38;1.30;;;13.50;99.90;;;;;;4908303;29;20056;-41
2022/06/07 10:53:35;;;;;;;9.32;2.15;;;13.50;99.90;;;;;;4904465;29;20515;-41
2022/06/07 10:56:02;;;;;;;5.25;1.70;;;13.50;99.90;;;;;;4911812;29;20625;-40
2022/06/07 10:58:39;;;;;;;6.68;1.50;;;13.50;99.90;;;;;;4894431;29;20075;-41
2022/06/07 11:01:30;;;;;;;10.52;1.67;;;13.50;99.90;;;;;;4911609;29;20040;-40
2022/06/07 11:10:15;;;;;;;7.72;1.45;;;13.70;99.90;;;;;;4918295;29;20056;-41
2022/06/07 11:13:02;;;;;;;7.20;1.27;;;13.80;99.90;;;;;;4910637;29;20056;-40
2022/06/07 11:15:50;;;;;;;9.20;1.40;;;13.90;99.90;;;;;;4911204;29;20146;-40
2022/06/07 11:18:24;;;;;;;6.80;1.00;;;14.00;99.90;;;;;;4893660;29;20048;-41
2022/06/07 11:21:02;;;;;;;9.55;1.35;;;14.00;99.90;;;;;;4910419;29;20411;-40
2022/06/07 11:23:56;;;;;;;5.85;1.50;;;14.10;99.90;;;;;;4910486;29;20135;-40
2022/06/07 11:26:21;;;;;;;5.60;1.55;;;14.10;99.90;;;;;;4900425;29;20044;-40
2022/06/07 11:28:53;;;;;;;8.05;1.30;;;14.20;99.90;;;;;;4906408;29;20098;-41
2022/06/07 11:31:35;;;;;;;7.03;1.17;;;14.30;99.90;;;;;;4909529;29;20060;-40
2022/06/07 11:34:07;;;;;;;6.93;1.15;;;14.40;99.90;;;;;;4909563;29;20052;-39
2022/06/07 11:36:36;;;;;;;5.93;0.80;;;14.40;99.90;;;;;;4896730;29;20591;-41
2022/06/07 11:39:21;;;;;;;4.78;1.05;;;14.40;99.90;;;;;;4907936;29;20543;-40
2022/06/07 11:41:51;;;;;;;5.28;1.30;;;14.50;99.90;;;;;;4911374;29;20070;-39
2022/06/07 11:44:17;;;;;;;8.82;0.93;;;14.40;99.90;;;;;;4909392;29;20100;-42
2022/06/07 11:46:57;;;;;;;5.50;1.13;;;14.50;99.90;;;;;;4865820;29;20610;-42
2022/06/07 11:49:23;;;;;;;4.60;1.13;;;14.50;99.90;;;;;;4908625;29;20084;-42
2022/06/07 11:52:02;;;;;;;6.82;1.08;;;14.50;99.90;;;;;;4909985;29;20056;-41
2022/06/07 11:54:37;;;;;;;6.43;1.20;;;14.40;99.90;;;;;;4908885;29;20674;-41
2022/06/07 11:57:28;;;;;;;5.10;0.90;;;14.40;99.90;;;;;;4896436;29;20209;-42
2022/06/07 11:59:56;;;;;;;5.07;1.07;;;14.40;99.90;;;;;;4907661;29;20054;-42
2022/06/07 12:02:29;;;;;;;4.60;1.23;;;14.40;99.90;;;;;;4908678;29;20500;-42
2022/06/07 12:05:03;;;;;;;7.80;1.33;;;14.40;99.90;;;;;;4909525;29;20481;-42
2022/06/07 12:08:09;;;;;;;8.02;1.15;;;14.50;99.90;;;;;;4894080;29;20092;-42
2022/06/07 12:10:40;;;;;;;5.60;1.05;;;14.60;99.90;;;;;;4908964;29;20052;-41
2022/06/07 12:13:16;;;;;;;4.25;0.85;;;14.60;99.90;;;;;;4910966;29;20155;-41
2022/06/07 12:15:46;;;;;;;7.72;0.90;;;14.70;99.90;;;;;;4910234;29;20055;-42
2022/06/07 12:18:17;;;;;;;5.15;0.68;;;14.70;99.90;;;;;;4894376;29;20068;-41
2022/06/07 12:20:51;;;;;;;6.35;0.70;;;14.70;99.90;;;;;;4909022;29;20500;-42
2022/06/07 12:23:25;;;;;;;6.38;0.65;;;14.70;99.90;;;;;;4910265;29;20579;-42
2022/06/07 12:26:00;;;;;;;5.45;0.85;;;14.80;99.90;;;;;;4910726;29;20054;-42
2022/06/07 12:28:31;;;;;;;2.80;0.70;;;14.80;99.90;;;;;;4893420;29;21426;-41
2022/06/07 12:30:57;;;;;;;4.93;0.90;;;14.80;99.90;;;;;;4910653;29;20060;-42
2022/06/07 12:33:32;;;;;;;6.00;1.23;;;14.90;99.90;;;;;;4909337;29;20115;-42
2022/06/07 12:36:01;;;;;;;5.28;1.05;;;14.90;99.90;;;;;;4909622;29;20052;-42
2022/06/07 12:38:28;;;;;;;5.72;1.20;;;15.00;99.90;;;;;;4893112;29;20424;-41
2022/06/07 12:41:07;;;;;;;6.43;1.17;;;15.00;99.90;;;;;;4909663;29;20052;-42
2022/06/07 12:43:43;;;;;;;3.65;0.70;;;15.10;99.90;;;;;;4908698;29;20044;-41
2022/06/07 12:46:31;;;;;;;7.10;1.45;;;15.20;99.90;;;;;;4904538;29;20501;-41
2022/06/07 12:48:58;;;;;;;8.35;1.30;;;15.40;99.90;;;;;;4904458;29;20048;-42
2022/06/07 12:51:35;;;;;;;6.50;1.45;;;15.60;99.90;;;;;;4907462;29;20044;-42
2022/06/07 12:54:17;;;;;;;5.90;1.10;;;15.70;99.90;;;;;;4907522;29;20058;-42
2022/06/07 12:56:44;;;;;;;3.03;0.90;;;15.90;99.90;;;;;;4896183;29;21092;-42
2022/06/07 12:59:22;;;;;;;6.72;1.20;;;16.00;99.90;;;;;;4907358;29;20647;-42
2022/06/07 13:01:50;;;;;;;4.40;0.85;;;16.10;99.90;;;;;;4909738;29;20737;-40
2022/06/07 13:04:21;;;;;;;2.38;0.70;;;16.10;99.90;;;;;;4909093;29;20808;-42
2022/06/07 13:06:59;;;;;;;4.88;1.00;;;16.10;99.90;;;;;;4892683;29;20111;-42
2022/06/07 13:09:25;;;;;;;6.95;1.00;;;16.10;99.90;;;;;;4906999;29;20048;-41
2022/06/07 13:11:52;;;;;;;3.88;0.90;;;16.00;99.90;;;;;;4909096;29;20107;-42
2022/06/07 13:14:19;;;;;;;4.70;1.05;;;16.00;99.90;;;;;;4907585;29;20480;-42
2022/06/07 13:16:49;;;;;;;5.13;0.80;;;16.00;99.90;;;;;;4893660;29;20062;-42
2022/06/07 13:19:14;;;;;;;3.60;0.88;;;15.90;99.90;;;;;;4907432;29;20051;-42
2022/06/07 13:22:14;;;;;;;5.40;0.80;;;15.90;99.90;;;;;;4909007;29;20048;-42
2022/06/07 13:24:43;;;;;;;6.88;1.10;;;15.80;99.90;;;;;;4905727;29;20525;-42
2022/06/07 13:27:24;;;;;;;5.70;0.80;;;15.80;99.90;;;;;;4893451;29;20079;-42
2022/06/07 13:29:49;;;;;;;8.18;1.40;;;15.70;99.90;;;;;;4906061;29;20068;-42